Bighorn, Montana
Current Conditions -  °F | °C
As of 4:53 AM on Tuesday 27 Jan 2015 (Local Time) from KBIL Reporting Station
Clear Clear  
Wind Chill: 51°   Ceiling: Unl
Heat Index: 51°   Visibility: 10mi
Dew Point: 26°   Wind: 21mph
Humidity: 38%   Direction: 240°WSW
Pressure: 29.94"   Gusts: NA
Location:  46.16°N, 107.45°W
Report Text: KBIL 271153Z 24018KT 10SM CLR 11/M03 A2994 RMK AO2 PK WND 24026/1143 SLP133 T01061033 10117 20100 56004
Loading
Personal Weather Stations






























Interactive Weather Map New forecast layout! Learn more

10-Day Weather Forecast

Advertisements
Track Severe Weather on mobile